Aviation Digital Data Service (ADDS)

Output produced by METARs form (1738 UTC 27 May 2017)
found at http://www.aviationweather.gov/adds/metars/
 
FEFF 271700Z 19004KT 9999 SCT023 FEW040CB 27/23 Q1011 NOSIG
TAF FEFF 271700Z 2718/2824 18006KT 8000 FEW023 FEW033CB 
     BECMG 2802/2804 BKN010 FEW033CB 
     PROB30 
     TEMPO 2804/2810 09020KT 4000 TSRA 
     BECMG 2810/2811 SCT026 FEW033CB 
     TEMPO 2816/2820 TS